Time;durP1;ratioP1;P1;durP2;ratioP2;P2;SDS_P1;SDS_P2;PMS_P1;PMS_P2;Temp;Humidity;BMP_temperature;BMP_pressure;BME280_temperature;BME280_humidity;BME280_pressure;Samples;Min_cycle;Max_cycle;Signal;HPM_P1;HPM_P2
2022/05/12 00:00:18;;;;;;;5.22;2.08;;;;;;;17.99;47.69;101273.97;4914814;28;113674;-75
2022/05/12 00:02:46;;;;;;;5.65;2.00;;;;;;;17.95;47.69;101280.53;4915647;28;113484;-75
2022/05/12 00:05:14;;;;;;;6.53;2.10;;;;;;;17.91;47.79;101289.72;4895872;28;123521;-75
2022/05/12 00:07:42;;;;;;;5.10;2.10;;;;;;;17.84;47.59;101288.41;4912814;28;124811;-75
2022/05/12 00:10:13;;;;;;;4.32;1.80;;;;;;;17.78;47.94;101294.16;4895149;28;114001;-75
2022/05/12 00:12:41;;;;;;;7.53;1.75;;;;;;;17.73;47.83;101285.59;4926856;28;113846;-75
2022/05/12 00:15:12;;;;;;;5.80;2.25;;;;;;;17.66;48.05;101291.34;4912677;28;125220;-76
2022/05/12 00:17:39;;;;;;;6.03;1.83;;;;;;;17.59;48.09;101295.41;4927191;28;124800;-75
2022/05/12 00:20:07;;;;;;;6.55;1.77;;;;;;;17.54;48.08;101297.56;4894973;28;114611;-75
2022/05/12 00:22:34;;;;;;;6.40;1.80;;;;;;;17.50;48.11;101301.41;4927601;28;113380;-75
2022/05/12 00:25:02;;;;;;;7.60;1.92;;;;;;;17.45;48.20;101306.22;4926602;28;123230;-75
2022/05/12 00:27:29;;;;;;;6.40;2.08;;;;;;;17.41;48.33;101312.72;4912586;28;123591;-76
2022/05/12 00:29:56;;;;;;;4.22;2.10;;;;;;;17.36;48.39;101314.84;4911463;28;115449;-75
2022/05/12 00:32:24;;;;;;;7.70;2.05;;;;;;;17.31;48.57;101313.34;4927605;28;114521;-76
2022/05/12 00:34:51;;;;;;;8.70;2.20;;;;;;;17.26;48.43;101310.09;4911048;28;123459;-76
2022/05/12 00:37:18;;;;;;;3.72;1.80;;;;;;;17.24;48.53;101324.56;4894588;28;123210;-76
2022/05/12 00:39:45;;;;;;;3.92;1.92;;;;;;;17.19;48.37;101327.50;4911907;28;113172;-76
2022/05/12 00:42:12;;;;;;;6.40;1.80;;;;;;;17.14;48.50;101326.97;4910893;28;113637;-76
2022/05/12 00:44:39;;;;;;;4.43;1.50;;;;;;;17.09;48.45;101339.78;4912409;28;124118;-75
2022/05/12 00:47:06;;;;;;;7.28;1.95;;;;;;;17.05;48.48;101330.25;4927084;28;124056;-76
2022/05/12 00:49:37;;;;;;;5.22;1.80;;;;;;;17.01;48.84;101336.72;4912863;28;113076;-75
2022/05/12 00:52:09;;;;;;;3.45;1.77;;;;;;;16.96;48.67;101333.50;4895078;28;113500;-75
2022/05/12 00:54:43;;;;;;;8.63;1.95;;;;;;;16.90;48.73;101340.97;4910708;28;125140;-75
2022/05/12 00:57:14;;;;;;;4.10;1.55;;;;;;;16.87;48.87;101341.16;4910412;28;124167;-75
2022/05/12 00:59:41;;;;;;;4.20;2.17;;;;;;;16.84;48.56;101341.38;4910569;28;113326;-75
2022/05/12 01:02:12;;;;;;;3.92;1.55;;;;;;;16.79;49.01;101343.44;4894536;28;113167;-75
2022/05/12 01:04:39;;;;;;;5.05;1.58;;;;;;;16.75;48.67;101347.25;4911770;28;124369;-76
2022/05/12 01:07:06;;;;;;;5.50;1.95;;;;;;;16.71;48.61;101357.28;4894624;28;123414;-76
2022/05/12 01:09:34;;;;;;;3.03;1.50;;;;;;;16.67;48.74;101349.53;4894863;28;113141;-76
2022/05/12 01:12:01;;;;;;;4.88;1.42;;;;;;;16.61;48.78;101360.63;4926328;28;113245;-77
2022/05/12 01:14:29;;;;;;;2.90;1.50;;;;;;;16.57;48.70;101365.31;4911938;28;124768;-76
2022/05/12 01:17:01;;;;;;;4.88;1.40;;;;;;;16.54;48.85;101366.38;4911561;28;124647;-76
2022/05/12 01:19:35;;;;;;;4.75;1.45;;;;;;;16.50;48.75;101364.84;4909864;28;115446;-76
2022/05/12 01:22:06;;;;;;;5.97;1.60;;;;;;;16.47;48.48;101369.50;4909278;28;116517;-75
2022/05/12 01:24:40;;;;;;;3.97;1.50;;;;;;;16.42;48.76;101372.44;4924813;28;124518;-75
2022/05/12 01:27:19;;;;;;;4.43;1.67;;;;;;;16.38;48.85;101370.94;4911025;28;124698;-76
2022/05/12 01:29:55;;;;;;;7.70;2.03;;;;;;;16.34;48.91;101374.75;4910141;28;113250;-76
2022/05/12 01:32:26;;;;;;;2.67;1.48;;;;;;;16.31;48.81;101377.59;4912522;28;115921;-76
2022/05/12 01:34:54;;;;;;;3.92;1.80;;;;;;;16.29;48.81;101380.38;4911132;28;123794;-76
2022/05/12 01:37:23;;;;;;;3.80;1.65;;;;;;;16.28;48.98;101385.81;4896128;28;124347;-76
2022/05/12 01:39:51;;;;;;;2.88;1.88;;;;;;;16.25;48.92;101381.50;4926748;28;113852;-75
2022/05/12 01:42:18;;;;;;;3.75;2.00;;;;;;;16.22;48.93;101391.50;4911735;28;115549;-76
2022/05/12 01:44:45;;;;;;;3.85;1.40;;;;;;;16.20;48.91;101401.44;4912324;28;123975;-76
2022/05/12 01:47:13;;;;;;;4.50;1.60;;;;;;;16.17;49.09;101404.31;4913045;28;123731;-76
2022/05/12 01:49:40;;;;;;;4.10;1.95;;;;;;;16.13;48.90;101409.81;4912257;28;114073;-76
2022/05/12 01:52:10;;;;;;;4.07;1.90;;;;;;;16.10;48.95;101410.00;4925987;28;113633;-76
2022/05/12 01:54:37;;;;;;;5.65;1.65;;;;;;;16.08;48.97;101417.25;4893354;28;123781;-76
2022/05/12 01:57:05;;;;;;;3.53;1.70;;;;;;;16.05;49.10;101414.78;4910921;28;123879;-77
2022/05/12 01:59:33;;;;;;;4.43;1.90;;;;;;;16.03;49.13;101410.44;4926651;28;96842;-76
2022/05/12 02:02:00;;;;;;;4.03;1.85;;;;;;;16.01;49.26;101415.91;4911318;28;113915;-76
2022/05/12 02:04:28;;;;;;;5.95;1.75;;;;;;;15.99;49.10;101411.59;4909884;28;123840;-76
2022/05/12 02:06:55;;;;;;;3.85;1.90;;;;;;;15.98;49.33;101420.56;4910952;28;123988;-76
2022/05/12 02:09:22;;;;;;;5.25;1.90;;;;;;;15.95;49.25;101418.91;4910551;28;115096;-76
2022/05/12 02:11:49;;;;;;;4.85;1.88;;;;;;;15.94;49.50;101425.22;4893057;28;113957;-76
2022/05/12 02:14:16;;;;;;;4.15;1.77;;;;;;;15.92;49.48;101419.13;4925744;28;123865;-76
2022/05/12 02:16:43;;;;;;;5.30;1.73;;;;;;;15.90;49.61;101427.22;4893553;28;123655;-76
2022/05/12 02:19:11;;;;;;;4.43;1.90;;;;;;;15.86;49.60;101438.16;4925858;28;114129;-77
2022/05/12 02:21:38;;;;;;;4.45;1.92;;;;;;;15.82;49.68;101442.81;4910267;28;113532;-76
2022/05/12 02:24:05;;;;;;;2.60;1.80;;;;;;;15.79;49.75;101442.16;4925308;28;123418;-76
2022/05/12 02:26:33;;;;;;;6.55;2.08;;;;;;;15.76;50.02;101452.06;4891100;28;122851;-76
2022/05/12 02:29:00;;;;;;;4.80;2.10;;;;;;;15.73;50.15;101454.91;4891818;28;114238;-76
2022/05/12 02:31:27;;;;;;;3.67;1.95;;;;;;;15.73;50.28;101460.22;4891429;28;112997;-76
2022/05/12 02:33:54;;;;;;;5.22;2.00;;;;;;;15.70;50.30;101447.00;4906509;28;124743;-77
2022/05/12 02:36:22;;;;;;;5.20;2.20;;;;;;;15.69;50.41;101447.09;4890608;28;122556;-76
2022/05/12 02:38:49;;;;;;;4.57;2.08;;;;;;;15.67;50.38;101455.22;4894915;28;114302;-76
2022/05/12 02:41:16;;;;;;;4.72;2.40;;;;;;;15.65;50.29;101451.78;4894530;28;113589;-76
2022/05/12 02:43:43;;;;;;;7.32;2.60;;;;;;;15.62;50.38;101445.75;4923114;28;123007;-77
2022/05/12 02:46:12;;;;;;;6.97;2.50;;;;;;;15.59;50.53;101457.44;4913915;28;123732;-75
2022/05/12 02:48:43;;;;;;;5.50;2.20;;;;;;;15.57;50.66;101470.03;4913975;28;113470;-76
2022/05/12 02:51:11;;;;;;;3.50;1.90;;;;;;;15.53;50.55;101473.81;4910084;28;113527;-76
2022/05/12 02:53:39;;;;;;;4.50;2.47;;;;;;;15.53;50.66;101479.16;4911896;28;123196;-75
2022/05/12 02:56:08;;;;;;;3.83;1.60;;;;;;;15.49;50.76;101482.94;4913861;28;124690;-76
2022/05/12 02:58:35;;;;;;;3.28;1.70;;;;;;;15.46;50.71;101488.44;4911883;28;114957;-76
2022/05/12 03:01:05;;;;;;;6.15;1.70;;;;;;;15.42;50.91;101486.91;4896913;28;115836;-77
2022/05/12 03:03:32;;;;;;;5.07;1.83;;;;;;;15.41;50.93;101491.38;4913609;28;124041;-76
2022/05/12 03:05:59;;;;;;;3.67;2.00;;;;;;;15.41;50.78;101493.16;4897564;28;123812;-76
2022/05/12 03:08:26;;;;;;;3.90;2.05;;;;;;;15.37;51.12;101488.00;4897492;28;113649;-76
2022/05/12 03:10:53;;;;;;;5.68;1.73;;;;;;;15.37;51.22;101490.69;4913188;28;113665;-76
2022/05/12 03:13:22;;;;;;;2.72;1.50;;;;;;;15.36;50.97;101502.28;4928013;28;124242;-76
2022/05/12 03:15:50;;;;;;;4.40;1.98;;;;;;;15.34;50.98;101504.19;4913350;28;124235;-76
2022/05/12 03:18:18;;;;;;;4.18;2.10;;;;;;;15.33;51.10;101498.94;4927407;28;113582;-76
2022/05/12 03:20:46;;;;;;;4.07;1.83;;;;;;;15.30;51.06;101499.97;4913032;28;113707;-76
2022/05/12 03:23:16;;;;;;;4.40;1.83;;;;;;;15.29;51.07;101494.72;4895955;28;123801;-76
2022/05/12 03:25:45;;;;;;;6.70;2.05;;;;;;;15.28;51.24;101499.19;4928019;28;123074;-76
2022/05/12 03:28:12;;;;;;;5.13;1.90;;;;;;;15.27;51.13;101501.94;4913274;28;114671;-76
2022/05/12 03:30:42;;;;;;;3.42;1.83;;;;;;;15.24;51.08;101505.66;4912554;28;113755;-76
2022/05/12 03:33:12;;;;;;;4.70;1.83;;;;;;;15.22;51.21;101502.19;4913067;28;124051;-76
2022/05/12 03:35:39;;;;;;;6.90;1.85;;;;;;;15.19;51.06;101502.34;4896116;28;123562;-76
2022/05/12 03:38:06;;;;;;;4.70;1.83;;;;;;;15.14;51.13;101499.06;4895213;28;114055;-76
2022/05/12 03:40:33;;;;;;;5.13;2.05;;;;;;;15.12;51.40;101495.63;4910834;28;113827;-76
2022/05/12 03:43:00;;;;;;;3.33;1.83;;;;;;;15.10;51.33;101503.69;4910864;28;124013;-76
2022/05/12 03:45:29;;;;;;;4.95;2.42;;;;;;;15.08;51.37;101520.75;4895300;28;123520;-76
2022/05/12 03:47:57;;;;;;;4.28;2.20;;;;;;;15.05;51.42;101515.56;4909542;28;115281;-76
2022/05/12 03:50:26;;;;;;;5.72;2.10;;;;;;;15.01;51.48;101519.34;4894206;28;115046;-76
2022/05/12 03:52:54;;;;;;;7.72;2.40;;;;;;;14.97;51.63;101530.19;4912873;28;123216;-76
2022/05/12 03:55:24;;;;;;;6.82;2.20;;;;;;;14.95;51.79;101537.38;4912465;28;123649;-76
2022/05/12 03:57:53;;;;;;;6.07;2.00;;;;;;;14.94;51.94;101540.16;4913288;28;113962;-76
2022/05/12 04:00:24;;;;;;;7.82;2.20;;;;;;;14.91;51.78;101541.16;4911169;28;113286;-76
2022/05/12 04:02:52;;;;;;;6.07;2.20;;;;;;;14.91;51.98;101538.50;4911758;28;123839;-76
2022/05/12 04:05:20;;;;;;;6.07;2.00;;;;;;;14.92;51.99;101542.91;4913534;28;124024;-76
2022/05/12 04:07:51;;;;;;;4.20;2.70;;;;;;;14.92;51.88;101542.91;4910855;28;113967;-76
2022/05/12 04:10:20;;;;;;;4.15;1.80;;;;;;;14.92;51.50;101553.56;4912647;28;114049;-76
2022/05/12 04:12:47;;;;;;;8.40;2.50;;;;;;;14.92;52.08;101558.03;4927832;28;124590;-76
2022/05/12 04:15:17;;;;;;;9.00;2.17;;;;;;;14.90;51.99;101563.44;4900928;28;123883;-76
2022/05/12 04:17:53;;;;;;;5.57;2.05;;;;;;;14.91;51.93;101566.97;4946415;28;113533;-76
2022/05/12 04:20:20;;;;;;;5.05;2.28;;;;;;;14.90;52.12;101563.44;4917114;28;113575;-76
2022/05/12 04:22:48;;;;;;;7.55;2.25;;;;;;;14.90;52.22;101566.13;4914959;28;124243;-76
2022/05/12 04:25:16;;;;;;;6.93;2.40;;;;;;;14.91;52.31;101567.81;4895755;28;124065;-76
2022/05/12 04:27:43;;;;;;;8.00;2.70;;;;;;;14.92;52.24;101574.91;4927773;28;114392;-76
2022/05/12 04:30:12;;;;;;;7.88;2.65;;;;;;;14.93;52.45;101568.59;4912596;28;114488;-76
2022/05/12 04:32:40;;;;;;;7.63;2.72;;;;;;;14.94;52.36;101570.34;4895052;28;123335;-76
2022/05/12 04:35:12;;;;;;;11.20;3.53;;;;;;;14.95;52.69;101574.72;4912248;28;123473;-76
2022/05/12 04:37:52;;;;;;;9.20;3.40;;;;;;;14.95;52.49;101580.06;4909876;28;115709;-76
2022/05/12 04:40:28;;;;;;;9.02;3.85;;;;;;;14.95;52.77;101585.41;4911495;28;116804;-76
2022/05/12 04:42:58;;;;;;;11.52;3.97;;;;;;;15.01;52.96;101588.69;4895007;28;123284;-76
2022/05/12 04:45:29;;;;;;;14.57;4.55;;;;;;;15.06;52.99;101602.66;4926678;28;124537;-76
2022/05/12 04:47:56;;;;;;;13.40;4.57;;;;;;;15.10;52.80;101604.22;4910252;28;114541;-76
2022/05/12 04:50:32;;;;;;;12.48;4.95;;;;;;;15.12;52.98;101602.34;4911823;28;114374;-76
2022/05/12 04:53:00;;;;;;;10.15;4.60;;;;;;;15.15;53.11;101604.88;4894502;28;123523;-75
2022/05/12 04:55:28;;;;;;;13.68;5.00;;;;;;;15.18;53.20;101610.03;4895191;28;123406;-77
2022/05/12 04:57:57;;;;;;;13.73;5.65;;;;;;;15.19;53.16;101611.75;4911781;28;114124;-75
2022/05/12 05:00:32;;;;;;;15.52;5.70;;;;;;;15.24;53.48;101609.72;4926296;28;114223;-75
2022/05/12 05:02:59;;;;;;;11.38;5.38;;;;;;;15.27;53.45;101614.88;4909721;28;124296;-75
2022/05/12 05:05:28;;;;;;;13.98;5.70;;;;;;;15.30;53.59;101614.72;4894914;28;123707;-74
2022/05/12 05:07:55;;;;;;;12.30;5.60;;;;;;;15.33;53.58;101617.25;4911917;28;114059;-76
2022/05/12 05:10:23;;;;;;;13.20;5.82;;;;;;;15.37;53.68;101618.81;4894004;28;114016;-76
2022/05/12 05:12:50;;;;;;;15.05;5.88;;;;;;;15.42;53.64;101620.38;4878695;28;123453;-75
2022/05/12 05:15:17;;;;;;;14.32;6.18;;;;;;;15.45;53.84;101620.22;4894614;28;123885;-75
2022/05/12 05:17:45;;;;;;;18.50;7.13;;;;;;;15.50;53.85;101639.50;4894296;28;114649;-76
2022/05/12 05:20:16;;;;;;;19.83;7.65;;;;;;;15.55;54.08;101634.78;4926066;28;113867;-76
2022/05/12 05:22:45;;;;;;;16.75;7.35;;;;;;;15.58;53.92;101640.81;4911113;28;124805;-76
2022/05/12 05:25:13;;;;;;;15.30;7.00;;;;;;;15.62;54.05;101649.53;4894374;28;123955;-76
2022/05/12 05:27:41;;;;;;;15.88;6.97;;;;;;;15.67;54.08;101647.50;4909588;28;114890;-75
2022/05/12 05:30:11;;;;;;;16.63;6.90;;;;;;;15.72;54.17;101655.25;4893597;28;114777;-74
2022/05/12 05:32:38;;;;;;;15.27;7.28;;;;;;;15.77;54.23;101658.56;4925944;28;124682;-75
2022/05/12 05:35:07;;;;;;;16.90;7.57;;;;;;;15.81;54.28;101660.13;4911624;28;124143;-75
2022/05/12 05:37:36;;;;;;;14.40;7.32;;;;;;;15.86;54.32;101662.53;4893872;28;112978;-75
2022/05/12 05:40:05;;;;;;;15.18;7.10;;;;;;;15.90;54.26;101658.78;4909552;28;113462;-75
2022/05/12 05:42:32;;;;;;;14.35;7.28;;;;;;;15.94;54.43;101652.31;4893838;28;123313;-75
2022/05/12 05:44:59;;;;;;;17.02;7.60;;;;;;;16.01;54.32;101667.06;4911782;28;123580;-74
2022/05/12 05:47:28;;;;;;;16.58;7.85;;;;;;;16.06;54.55;101675.69;4926244;28;114410;-75
2022/05/12 05:49:55;;;;;;;17.30;8.30;;;;;;;16.11;54.41;101678.97;4893484;28;114092;-75
2022/05/12 05:55:08;;;;;;;21.10;8.55;;;;;;;16.23;54.47;101693.47;4911782;28;124692;-75
2022/05/12 05:57:37;;;;;;;22.10;8.10;;;;;;;16.29;54.51;101701.16;4911667;28;114898;-75
2022/05/12 06:00:06;;;;;;;19.92;8.35;;;;;;;16.36;54.63;101704.34;4910321;28;114125;-75
2022/05/12 06:02:33;;;;;;;21.88;8.82;;;;;;;16.42;54.61;101708.47;4893954;28;123811;-75
2022/05/12 06:05:01;;;;;;;18.13;8.10;;;;;;;16.46;54.47;101705.56;4909793;28;123241;-75
2022/05/12 06:07:28;;;;;;;18.95;8.20;;;;;;;16.53;54.52;101712.28;4911404;28;114073;-76
2022/05/12 06:09:55;;;;;;;21.55;8.68;;;;;;;16.61;54.44;101724.34;4911192;28;113984;-74
2022/05/12 06:12:22;;;;;;;19.52;8.48;;;;;;;16.67;54.60;101718.66;4893190;28;122292;-75
2022/05/12 06:14:50;;;;;;;18.30;8.48;;;;;;;16.76;54.55;101727.97;4893985;28;122615;-75
2022/05/12 06:17:17;;;;;;;17.65;7.97;;;;;;;16.83;54.55;101730.25;4925485;28;115797;-75
2022/05/12 06:19:44;;;;;;;21.40;9.07;;;;;;;16.92;54.52;101735.06;4910811;28;114919;-75
2022/05/12 06:22:12;;;;;;;18.13;8.13;;;;;;;17.02;54.57;101734.53;4928133;28;124245;-74
2022/05/12 06:24:39;;;;;;;17.35;7.93;;;;;;;17.12;54.41;101735.72;4927215;28;123810;-76
2022/05/12 06:27:06;;;;;;;15.05;7.32;;;;;;;17.22;54.43;101739.59;4910478;28;113062;-75
2022/05/12 06:29:33;;;;;;;17.17;7.70;;;;;;;17.32;54.25;101738.09;4893017;28;113124;-76
2022/05/12 06:32:01;;;;;;;17.20;7.50;;;;;;;17.44;54.19;101741.00;4910027;28;123788;-75
2022/05/12 06:34:29;;;;;;;18.50;8.25;;;;;;;17.56;54.18;101739.41;4909336;28;123761;-75
2022/05/12 06:36:58;;;;;;;15.85;7.95;;;;;;;17.69;54.13;101751.97;4911162;28;114227;-75
2022/05/12 06:39:26;;;;;;;18.05;7.70;;;;;;;17.84;53.89;101749.31;4910378;28;114256;-75
2022/05/12 06:41:53;;;;;;;15.07;7.10;;;;;;;17.98;53.80;101748.50;4909490;28;123911;-76
2022/05/12 06:44:25;;;;;;;14.52;7.72;;;;;;;18.13;53.70;101744.00;4893202;28;124072;-75
2022/05/12 06:46:52;;;;;;;12.40;6.35;;;;;;;18.29;53.42;101750.13;4911175;28;115454;-75
2022/05/12 06:49:20;;;;;;;14.45;6.43;;;;;;;18.42;52.97;101745.72;4910599;28;113995;-76
2022/05/12 06:51:47;;;;;;;15.50;6.40;;;;;;;18.54;52.76;101753.94;4909529;28;124086;-76
2022/05/12 06:54:15;;;;;;;13.85;6.90;;;;;;;18.68;52.63;101753.88;4909891;28;123669;-75
2022/05/12 06:56:42;;;;;;;19.23;6.97;;;;;;;18.81;52.18;101762.91;4910594;28;114204;-77
2022/05/12 06:59:09;;;;;;;11.63;6.47;;;;;;;18.96;52.15;101752.97;4893265;28;114376;-77
2022/05/12 07:01:37;;;;;;;14.95;6.97;;;;;;;19.07;51.98;101757.66;4909822;28;124209;-76
2022/05/12 07:04:04;;;;;;;11.73;6.15;;;;;;;19.18;51.63;101760.47;4892635;28;123350;-76
2022/05/12 07:06:32;;;;;;;12.32;6.32;;;;;;;19.31;51.60;101765.88;4910141;28;116481;-75
2022/05/12 07:08:59;;;;;;;11.07;5.78;;;;;;;19.45;51.18;101770.31;4892829;28;113280;-75
2022/05/12 07:11:26;;;;;;;14.23;6.60;;;;;;;19.60;51.27;101763.91;4909132;28;124115;-75
2022/05/12 07:13:53;;;;;;;11.90;6.10;;;;;;;19.74;50.92;101773.75;4910028;28;124280;-76
2022/05/12 07:16:20;;;;;;;13.20;5.43;;;;;;;19.89;50.87;101769.13;4910682;28;114136;-76
2022/05/12 07:18:49;;;;;;;11.38;5.93;;;;;;;20.04;50.40;101769.88;4910456;28;114021;-76
2022/05/12 07:26:52;;;;;;;11.50;5.45;;;;;;;20.39;49.33;101775.44;4896452;28;113068;-75
2022/05/12 07:29:28;;;;;;;9.02;4.93;;;;;;;20.45;48.97;101784.06;4913033;28;113359;-75
2022/05/12 07:31:56;;;;;;;11.30;5.47;;;;;;;20.49;49.02;101780.16;4894579;28;124730;-76
2022/05/12 07:34:23;;;;;;;9.27;4.90;;;;;;;20.51;48.74;101789.88;4896188;28;123863;-76
2022/05/12 07:36:52;;;;;;;11.13;5.22;;;;;;;20.56;48.26;101786.81;4912417;28;112917;-76
2022/05/12 07:39:25;;;;;;;9.73;4.85;;;;;;;20.63;48.24;101798.91;4895777;28;113384;-76
2022/05/12 07:41:55;;;;;;;9.30;4.88;;;;;;;20.68;48.25;101796.75;4927540;28;123565;-76
2022/05/12 07:44:29;;;;;;;10.18;4.90;;;;;;;20.73;47.89;101783.78;4895446;28;122795;-77
2022/05/12 07:46:56;;;;;;;13.20;5.13;;;;;;;20.79;48.16;101794.13;4913442;28;114325;-76
2022/05/12 07:49:23;;;;;;;9.95;5.18;;;;;;;20.89;47.99;101790.75;4896093;28;113269;-78
2022/05/12 07:51:50;;;;;;;10.88;4.63;;;;;;;21.01;47.98;101787.16;4912134;28;124311;-76
2022/05/12 07:54:17;;;;;;;11.00;5.18;;;;;;;21.16;47.82;101791.38;4912411;28;123310;-77
2022/05/12 07:56:44;;;;;;;14.82;5.40;;;;;;;21.36;47.82;101789.03;4895386;28;115449;-78
2022/05/12 07:59:12;;;;;;;9.32;5.60;;;;;;;21.52;47.34;101797.69;4927038;28;114542;-75
2022/05/12 08:01:39;;;;;;;9.32;4.95;;;;;;;21.67;47.38;101806.44;4927095;28;124154;-77
2022/05/12 08:04:06;;;;;;;8.25;4.78;;;;;;;21.78;46.67;101808.34;4913241;28;123978;-76
2022/05/12 08:06:33;;;;;;;9.13;4.40;;;;;;;21.76;45.94;101815.69;4913612;28;114440;-76
2022/05/12 08:09:01;;;;;;;9.60;4.80;;;;;;;21.72;45.58;101808.81;4912956;28;112934;-77
2022/05/12 08:11:28;;;;;;;7.47;3.47;;;;;;;21.65;45.12;101812.94;4911919;28;123937;-77
2022/05/12 08:13:56;;;;;;;10.60;4.55;;;;;;;21.56;45.15;101815.34;4895354;28;123313;-77
2022/05/12 08:16:23;;;;;;;10.85;4.50;;;;;;;21.48;44.95;101823.19;4927730;28;114644;-77
2022/05/12 08:18:51;;;;;;;10.23;4.25;;;;;;;21.43;44.94;101821.78;4912359;28;114048;-77
2022/05/12 08:21:20;;;;;;;8.82;4.70;;;;;;;21.38;44.84;101816.75;4910000;28;122853;-77
2022/05/12 08:23:47;;;;;;;7.38;4.35;;;;;;;21.41;44.88;101827.28;4926991;28;123466;-77
2022/05/12 08:26:14;;;;;;;7.25;4.15;;;;;;;21.48;44.74;101823.19;4910657;28;113264;-77
2022/05/12 08:28:42;;;;;;;7.28;3.75;;;;;;;21.49;44.49;101822.22;4913541;28;113820;-76
2022/05/12 08:31:10;;;;;;;8.55;4.25;;;;;;;21.49;44.26;101819.53;4895390;28;123551;-76
2022/05/12 08:33:38;;;;;;;9.63;4.78;;;;;;;21.53;44.47;101818.31;4895911;28;123037;-77
2022/05/12 08:36:06;;;;;;;11.07;5.05;;;;;;;21.66;44.57;101820.03;4895547;28;113451;-77
2022/05/12 08:38:34;;;;;;;11.73;5.07;;;;;;;21.82;44.47;101815.19;4895605;28;114168;-76
2022/05/12 08:41:21;;;;;;;8.43;4.35;;;;;;;21.97;44.09;101818.53;4911134;28;124139;-76
2022/05/12 08:43:58;;;;;;;9.05;4.30;;;;;;;22.08;43.96;101823.13;4893378;28;123383;-77
2022/05/12 08:46:35;;;;;;;7.38;3.60;;;;;;;22.11;43.50;101825.56;4910948;28;115134;-77
2022/05/12 08:49:25;;;;;;;8.60;3.67;;;;;;;22.13;43.10;101812.78;4912101;28;114789;-77
2022/05/12 08:52:03;;;;;;;6.47;3.55;;;;;;;22.14;42.70;101814.53;4894383;28;122887;-75
2022/05/12 08:54:32;;;;;;;5.43;3.10;;;;;;;22.10;42.12;101813.91;4894736;28;123339;-75
2022/05/12 08:57:04;;;;;;;5.63;2.90;;;;;;;22.08;41.72;101817.72;4912156;28;113979;-75
2022/05/12 08:59:32;;;;;;;5.53;2.70;;;;;;;22.09;41.67;101816.72;4894360;28;112271;-76
2022/05/12 09:02:19;;;;;;;7.35;3.60;;;;;;;22.15;41.76;101832.41;4911180;28;123747;-76
2022/05/12 09:05:07;;;;;;;7.35;3.35;;;;;;;22.20;41.81;101824.84;4893983;28;123407;-76
2022/05/12 09:07:49;;;;;;;6.05;3.10;;;;;;;22.31;41.70;101822.19;4910134;28;113702;-75
2022/05/12 09:11:03;;;;;;;5.90;2.78;;;;;;;22.47;41.65;101820.94;4923571;28;113209;-75
2022/05/12 09:13:35;;;;;;;5.40;2.90;;;;;;;22.60;41.27;101816.28;4893714;28;123617;-76
2022/05/12 09:16:21;;;;;;;7.40;3.28;;;;;;;22.71;41.17;101823.53;4911957;28;124071;-75
2022/05/12 09:18:48;;;;;;;5.95;2.30;;;;;;;22.77;40.65;101838.38;4925997;28;113745;-76
2022/05/12 09:21:20;;;;;;;5.43;2.20;;;;;;;22.77;40.10;101832.97;4893977;28;113231;-76
2022/05/12 09:23:49;;;;;;;5.68;2.80;;;;;;;22.82;40.02;101831.59;4926660;28;123999;-76
2022/05/12 09:26:44;;;;;;;5.53;2.55;;;;;;;22.84;39.78;101835.03;4911392;28;123684;-77
2022/05/12 09:29:14;;;;;;;;;;;;;;;22.85;40.92;101825.97;4911937;28;113907;-76
2022/05/12 09:31:45;;;;;;;4.63;2.00;;;;;;;22.94;40.00;101836.03;4893947;28;112783;-76
2022/05/12 09:34:18;;;;;;;3.80;2.25;;;;;;;22.97;39.48;101829.50;4910477;28;123438;-77
2022/05/12 09:36:45;;;;;;;4.18;2.40;;;;;;;22.99;39.39;101826.69;4926970;28;123357;-76
2022/05/12 09:39:33;;;;;;;4.45;2.38;;;;;;;23.01;38.82;101825.56;4910921;28;115440;-76
2022/05/12 09:42:01;;;;;;;3.92;2.10;;;;;;;23.04;38.79;101819.94;4908991;28;115203;-76
2022/05/12 09:44:31;;;;;;;4.55;2.53;;;;;;;23.07;38.64;101829.63;4894330;28;123355;-77
2022/05/12 09:47:07;;;;;;;4.03;2.17;;;;;;;23.15;38.44;101826.28;4910306;28;124777;-76
2022/05/12 09:49:38;;;;;;;5.43;2.45;;;;;;;23.27;38.49;101820.72;4924922;28;113125;-76
2022/05/12 09:52:32;;;;;;;4.35;1.83;;;;;;;23.41;37.99;101822.25;4908620;28;113272;-76
2022/05/12 09:55:19;;;;;;;4.03;2.15;;;;;;;23.54;37.59;101815.84;4909216;28;123576;-74
2022/05/12 09:57:53;;;;;;;4.28;2.10;;;;;;;23.60;37.50;101815.31;4925569;28;123795;-76
2022/05/12 10:00:39;;;;;;;3.47;1.73;;;;;;;23.64;37.37;101811.34;4908290;28;114610;-75
2022/05/12 10:09:16;;;;;;;3.08;2.05;;;;;;;23.40;36.97;101817.84;4910582;28;124495;-76
2022/05/12 10:12:11;;;;;;;5.90;1.95;;;;;;;23.36;37.33;101818.22;4923986;28;114194;-75
2022/05/12 10:14:55;;;;;;;3.92;1.60;;;;;;;23.45;37.22;101818.34;4911396;28;114415;-75
2022/05/12 10:17:39;;;;;;;4.75;1.80;;;;;;;23.58;37.23;101814.56;4893380;28;123099;-75
2022/05/12 10:20:08;;;;;;;4.38;1.70;;;;;;;23.61;36.85;101823.28;4909000;28;123055;-76
2022/05/12 10:22:44;;;;;;;4.35;1.70;;;;;;;23.54;36.17;101815.84;4910900;28;114666;-76
2022/05/12 10:25:57;;;;;;;4.68;1.98;;;;;;;23.43;36.38;101812.22;4908856;28;113835;-76
2022/05/12 10:28:55;;;;;;;5.40;1.58;;;;;;;23.39;36.31;101818.81;4909477;28;124822;-75
2022/05/12 10:31:24;;;;;;;4.18;1.40;;;;;;;23.41;36.53;101816.84;4909864;28;124421;-75
2022/05/12 10:34:26;;;;;;;2.83;1.50;;;;;;;23.51;36.60;101812.41;4925143;28;114758;-76
2022/05/12 10:37:18;;;;;;;4.88;1.65;;;;;;;23.62;36.41;101821.44;4893642;28;114545;-75
2022/05/12 10:40:04;;;;;;;2.33;1.60;;;;;;;23.74;36.06;101820.41;4924378;28;124940;-75
2022/05/12 10:42:50;;;;;;;3.22;1.45;;;;;;;23.81;35.82;101818.94;4908979;28;124203;-75
2022/05/12 10:45:33;;;;;;;3.40;1.35;;;;;;;23.85;35.44;101808.69;4911317;28;114099;-75
2022/05/12 10:48:18;;;;;;;4.68;1.77;;;;;;;23.91;35.56;101819.00;4894464;28;113613;-76
2022/05/12 10:51:02;;;;;;;4.28;1.60;;;;;;;23.98;35.47;101816.59;4893257;28;123887;-75
2022/05/12 10:54:02;;;;;;;2.30;1.30;;;;;;;24.01;35.40;101819.03;4910001;28;124737;-76
2022/05/12 10:56:41;;;;;;;3.33;1.40;;;;;;;23.97;34.63;101821.16;4891460;28;115454;-76
2022/05/12 10:59:42;;;;;;;2.25;1.40;;;;;;;23.82;34.74;101817.91;4928695;28;112866;-76
2022/05/12 11:02:13;;;;;;;2.97;1.30;;;;;;;23.74;34.60;101812.28;4912611;28;124541;-76
2022/05/12 11:04:48;;;;;;;3.70;1.20;;;;;;;23.70;34.22;101816.25;4911830;28;123275;-76
2022/05/12 11:07:42;;;;;;;2.13;0.95;;;;;;;23.65;34.35;101810.38;4910711;28;114375;-76
2022/05/12 11:10:22;;;;;;;3.83;1.30;;;;;;;23.67;34.88;101802.97;4895166;28;114357;-76
2022/05/12 11:12:53;;;;;;;2.70;1.35;;;;;;;23.74;34.63;101806.88;4913136;28;123982;-75
2022/05/12 11:15:25;;;;;;;4.07;1.50;;;;;;;23.84;34.50;101802.41;4926400;28;124312;-76
2022/05/12 11:18:04;;;;;;;2.72;1.23;;;;;;;23.94;34.25;101796.19;4928177;28;112958;-75
2022/05/12 11:20:46;;;;;;;4.80;1.58;;;;;;;24.00;33.98;101795.69;4912759;28;114105;-76
2022/05/12 11:23:41;;;;;;;4.55;1.40;;;;;;;24.01;34.24;101782.00;4913288;28;124784;-74
2022/05/12 11:26:18;;;;;;;3.83;1.55;;;;;;;24.04;33.83;101797.97;4912656;28;123969;-75
2022/05/12 11:32:02;;;;;;;3.78;1.58;;;;;;;23.99;33.73;101788.56;4913263;28;114768;-75
2022/05/12 11:34:30;;;;;;;5.25;1.30;;;;;;;23.99;33.58;101793.97;4895915;28;124009;-75
2022/05/12 11:37:28;;;;;;;6.70;1.85;;;;;;;23.96;33.71;101794.22;4913702;28;124210;-75
2022/05/12 11:39:58;;;;;;;4.05;1.75;;;;;;;24.00;33.54;101806.53;4912488;28;114502;-74
2022/05/12 11:44:23;;;;;;;3.40;1.48;;;;;;;24.06;33.77;101790.59;4913564;28;114325;-75
2022/05/12 11:45:49;;;;;;;4.28;1.70;;;;;;;24.12;33.71;101791.91;4911449;28;123814;-75
2022/05/12 11:48:47;;;;;;;5.07;1.50;;;;;;;24.14;33.47;101792.63;4881349;28;124187;-75
2022/05/12 11:51:31;;;;;;;3.28;1.42;;;;;;;24.21;33.53;101782.13;4911283;28;114135;-74